Time;durP1;ratioP1;P1;durP2;ratioP2;P2;SDS_P1;SDS_P2;PMS_P1;PMS_P2;Temp;Humidity;BMP_temperature;BMP_pressure;BME280_temperature;BME280_humidity;BME280_pressure;Samples;Min_cycle;Max_cycle;Signal;HPM_P1;HPM_P2
2021/12/17 00:00:20;;;;;;;25.20;20.97;;;;;;;8.27;100.00;102288.72;5001068;28;20190;-69
2021/12/17 00:03:10;;;;;;;29.40;21.90;;;;;;;8.17;100.00;102295.66;5016652;28;20779;-69
2021/12/17 00:06:04;;;;;;;25.83;21.00;;;;;;;8.08;100.00;102288.91;5008724;28;20199;-70
2021/12/17 00:08:29;;;;;;;27.13;21.70;;;;;;;7.98;100.00;102294.97;5008306;28;20220;-69
2021/12/17 00:10:54;;;;;;;28.23;21.87;;;;;;;7.92;100.00;102295.03;5007041;28;20305;-67
2021/12/17 00:13:20;;;;;;;31.47;22.30;;;;;;;7.74;100.00;102289.19;5022474;28;20591;-68
2021/12/17 00:15:47;;;;;;;31.17;23.33;;;;;;;7.71;100.00;102291.75;5023100;28;20232;-69
2021/12/17 00:18:21;;;;;;;31.30;25.83;;;;;;;7.77;100.00;102285.75;5039428;28;21045;-69
2021/12/17 00:53:06;;;;;;;36.20;28.50;;;;;;;7.94;100.00;102280.50;5031801;28;20166;-69
2021/12/17 00:55:32;;;;;;;36.97;27.87;;;;;;;7.93;100.00;102275.41;5032140;28;20190;-68
2021/12/17 00:57:57;;;;;;;35.13;28.03;;;;;;;7.79;100.00;102280.63;5032509;28;20198;-67
2021/12/17 01:00:23;;;;;;;41.63;29.57;;;;;;;7.84;100.00;102286.53;5019765;28;20222;-68
2021/12/17 01:02:50;;;;;;;37.47;29.70;;;;;;;7.81;100.00;102284.88;5016773;28;20166;-69
2021/12/17 01:05:20;;;;;;;38.50;29.33;;;;;;;7.70;100.00;102290.09;5031033;28;20205;-68
2021/12/17 01:07:48;;;;;;;34.80;26.30;;;;;;;7.49;100.00;102290.22;5032240;28;20181;-68
2021/12/17 01:10:23;;;;;;;39.23;28.27;;;;;;;7.34;100.00;102299.69;5023696;28;20260;-68
2021/12/17 01:12:49;;;;;;;38.50;28.40;;;;;;;7.31;100.00;102301.44;5044712;28;20179;-68
2021/12/17 01:15:17;;;;;;;40.03;28.07;;;;;;;7.36;100.00;102299.69;5031944;28;20213;-68
2021/12/17 01:17:45;;;;;;;37.97;27.27;;;;;;;7.40;100.00;102301.38;5047446;28;20807;-68
2021/12/17 01:23:03;;;;;;;35.70;26.17;;;;;;;7.35;100.00;102298.84;5036091;28;20201;-69
2021/12/17 01:25:43;;;;;;;36.10;26.93;;;;;;;7.34;100.00;102307.38;5015650;28;20543;-69
2021/12/17 01:36:20;;;;;;;30.97;22.57;;;;;;;7.39;100.00;102305.66;5031657;28;20695;-69
2021/12/17 01:41:51;;;;;;;33.93;23.90;;;;;;;7.35;100.00;102311.63;5020715;28;20239;-69
2021/12/17 01:44:17;;;;;;;32.13;24.87;;;;;;;7.39;100.00;102317.59;5031425;28;20177;-69
2021/12/17 01:46:45;;;;;;;33.67;23.67;;;;;;;7.51;100.00;102312.41;5013760;28;20194;-69
2021/12/17 01:59:41;;;;;;;26.63;20.50;;;;;;;7.52;100.00;102306.41;5000232;28;20260;-69
2021/12/17 02:02:09;;;;;;;29.47;20.17;;;;;;;7.49;100.00;102301.34;5019841;28;20232;-69
2021/12/17 02:04:36;;;;;;;24.33;19.70;;;;;;;7.56;100.00;102299.56;5013499;28;20749;-69
2021/12/17 02:07:02;;;;;;;25.77;18.77;;;;;;;7.62;100.00;102296.13;5013511;28;20194;-69
2021/12/17 02:20:38;;;;;;;19.80;16.87;;;;;;;7.66;100.00;102293.50;5020661;28;20204;-69
2021/12/17 02:28:47;;;;;;;20.63;15.40;;;;;;;7.70;100.00;102282.41;5029736;28;20213;-69
2021/12/17 02:31:30;;;;;;;18.33;14.30;;;;;;;7.64;100.00;102274.75;5011710;28;20214;-68
2021/12/17 02:34:00;;;;;;;18.53;14.50;;;;;;;7.78;100.00;102278.91;5028726;28;20178;-68
2021/12/17 02:36:29;;;;;;;17.23;13.57;;;;;;;7.88;100.00;102275.44;5029700;28;20197;-67
2021/12/17 02:39:08;;;;;;;16.87;13.47;;;;;;;8.04;100.00;102273.59;5029104;28;20177;-67
2021/12/17 02:47:05;;;;;;;16.80;12.80;;;;;;;7.71;100.00;102273.00;5030532;28;20184;-68
2021/12/17 02:49:32;;;;;;;17.53;12.73;;;;;;;7.68;100.00;102268.75;5030358;28;20197;-68
2021/12/17 02:51:59;;;;;;;15.00;13.17;;;;;;;7.77;100.00;102266.97;5034856;28;20523;-67
2021/12/17 02:54:25;;;;;;;16.03;13.80;;;;;;;7.75;100.00;102264.41;5030583;28;20170;-67
2021/12/17 02:56:50;;;;;;;14.93;13.37;;;;;;;7.79;100.00;102262.69;5025677;28;20183;-67
2021/12/17 02:59:16;;;;;;;15.93;12.87;;;;;;;7.73;100.00;102272.13;5027925;28;20174;-67
2021/12/17 03:01:45;;;;;;;14.20;12.17;;;;;;;7.64;100.00;102268.78;5018851;28;20736;-67
2021/12/17 03:04:12;;;;;;;15.20;11.87;;;;;;;7.71;100.00;102262.75;5024853;28;20348;-67
2021/12/17 03:06:40;;;;;;;14.23;11.93;;;;;;;7.66;100.00;102270.47;5029319;28;20229;-69
2021/12/17 03:09:05;;;;;;;14.50;12.33;;;;;;;7.78;100.00;102264.41;5029339;28;20206;-68
2021/12/17 03:11:31;;;;;;;13.63;11.17;;;;;;;7.77;100.00;102265.25;5007112;28;20580;-70
2021/12/17 03:13:56;;;;;;;14.27;12.13;;;;;;;7.72;100.00;102261.88;5024535;28;20192;-67
2021/12/17 03:16:36;;;;;;;13.87;11.90;;;;;;;7.58;100.00;102265.41;5029290;28;20300;-67
2021/12/17 03:19:08;;;;;;;15.40;12.63;;;;;;;7.69;100.00;102270.44;5030279;28;20172;-68
2021/12/17 03:24:22;;;;;;;13.63;12.03;;;;;;;7.83;99.99;102277.19;5011625;28;20189;-69
2021/12/17 03:26:47;;;;;;;16.73;12.70;;;;;;;7.84;98.96;102281.41;5024852;28;20267;-69
2021/12/17 03:29:13;;;;;;;15.80;12.53;;;;;;;7.78;98.84;102268.66;5030085;28;20280;-69
2021/12/17 03:31:39;;;;;;;18.00;12.27;;;;;;;7.71;98.79;102262.75;5018876;28;20225;-69
2021/12/17 03:34:20;;;;;;;13.67;11.90;;;;;;;7.86;98.42;102262.63;5029538;28;20540;-69
2021/12/17 03:36:54;;;;;;;14.33;11.03;;;;;;;7.78;96.97;102263.53;5030111;28;20169;-69
2021/12/17 03:39:21;;;;;;;14.87;11.27;;;;;;;7.73;96.15;102261.88;5030098;28;20197;-69
2021/12/17 03:41:52;;;;;;;11.67;9.87;;;;;;;7.56;97.01;102268.84;5018484;28;20643;-69
2021/12/17 03:44:20;;;;;;;11.67;10.20;;;;;;;7.78;96.52;102259.28;5029649;28;20580;-70
2021/12/17 03:46:47;;;;;;;12.70;10.67;;;;;;;7.87;95.60;102258.34;5031143;28;20529;-69
2021/12/17 03:49:14;;;;;;;15.53;10.33;;;;;;;7.77;94.69;102255.00;5033518;28;20240;-68
2021/12/17 03:52:04;;;;;;;12.23;10.57;;;;;;;7.78;94.87;102254.16;5022210;28;20221;-69
2021/12/17 03:54:30;;;;;;;11.00;9.77;;;;;;;7.89;94.86;102254.91;5033394;28;20178;-69
2021/12/17 03:56:56;;;;;;;12.83;10.40;;;;;;;7.97;94.46;102261.69;5033559;28;20174;-69
2021/12/17 03:59:21;;;;;;;10.30;9.13;;;;;;;7.97;92.83;102252.28;5033340;28;20170;-69
2021/12/17 04:01:46;;;;;;;14.40;9.43;;;;;;;7.84;92.93;102256.66;4997823;28;20222;-69
2021/12/17 04:04:12;;;;;;;10.50;8.90;;;;;;;7.86;92.26;102257.50;5029202;28;20173;-69
2021/12/17 04:06:39;;;;;;;10.40;8.57;;;;;;;7.88;92.16;102253.19;5033103;28;20264;-69
2021/12/17 04:09:05;;;;;;;12.23;9.10;;;;;;;7.97;91.62;102249.72;5033197;28;20205;-69
2021/12/17 04:11:31;;;;;;;10.47;8.43;;;;;;;7.88;90.98;102249.81;5022065;28;20226;-69
2021/12/17 04:13:58;;;;;;;10.13;8.57;;;;;;;8.04;90.75;102232.56;5032660;28;20892;-69
2021/12/17 04:16:28;;;;;;;10.43;8.63;;;;;;;7.81;91.23;102241.31;5004784;28;20308;-69
2021/12/17 04:18:54;;;;;;;8.50;6.97;;;;;;;7.58;88.36;102241.50;5032760;28;20177;-69
2021/12/17 04:21:20;;;;;;;8.77;7.60;;;;;;;7.65;88.58;102232.06;5022012;28;20237;-68
2021/12/17 04:23:48;;;;;;;8.83;7.87;;;;;;;7.61;88.41;102230.38;5018319;28;20409;-68
2021/12/17 04:26:17;;;;;;;11.20;8.57;;;;;;;7.68;88.77;102232.03;5023269;28;20198;-68
2021/12/17 04:28:47;;;;;;;10.07;8.40;;;;;;;7.77;88.58;102231.13;5032965;28;20327;-66
2021/12/17 04:31:14;;;;;;;9.00;7.57;;;;;;;7.89;88.11;102213.91;4992418;28;20226;-68
2021/12/17 04:33:41;;;;;;;9.97;8.73;;;;;;;7.98;87.30;102222.38;5008140;28;20166;-68
2021/12/17 04:36:08;;;;;;;8.10;6.80;;;;;;;7.58;86.96;102234.66;5014737;28;20216;-67
2021/12/17 04:38:34;;;;;;;14.37;10.63;;;;;;;7.65;89.18;102243.13;5032658;28;20171;-68
2021/12/17 04:41:25;;;;;;;13.10;9.07;;;;;;;7.59;90.42;102235.50;5021896;28;20275;-68
2021/12/17 04:46:27;;;;;;;12.13;10.83;;;;;;;7.76;91.05;102232.81;5032750;28;20198;-68
2021/12/17 04:57:30;;;;;;;13.00;11.00;;;;;;;7.97;90.59;102224.06;5032793;28;20189;-67
2021/12/17 05:00:00;;;;;;;12.57;10.43;;;;;;;7.80;91.18;102216.56;5031423;28;20623;-68
2021/12/17 05:02:26;;;;;;;12.30;11.07;;;;;;;7.72;92.59;102223.47;5020774;28;20233;-67
2021/12/17 05:04:53;;;;;;;15.73;11.17;;;;;;;7.72;93.00;102221.75;5031866;28;20277;-68
2021/12/17 05:07:18;;;;;;;13.70;11.93;;;;;;;7.83;92.71;102226.78;5032026;28;20649;-68
2021/12/17 05:20:41;;;;;;;15.13;12.33;;;;;;;7.75;93.15;102219.16;5021910;28;20201;-69
2021/12/17 05:22:58;;;;;;;15.70;12.47;;;;;;;7.72;93.63;102213.22;5023309;28;20209;-69
2021/12/17 05:25:29;;;;;;;12.43;10.97;;;;;;;7.67;94.41;102215.81;5014785;28;20255;-69
2021/12/17 05:28:00;;;;;;;14.23;12.40;;;;;;;7.76;94.91;102209.75;5031888;28;20249;-68
2021/12/17 05:30:25;;;;;;;14.47;11.97;;;;;;;7.83;94.46;102213.97;5021215;28;20316;-69
2021/12/17 05:32:51;;;;;;;14.43;12.53;;;;;;;7.91;93.04;102211.31;5030723;28;20695;-69
2021/12/17 05:35:16;;;;;;;18.33;12.60;;;;;;;7.93;92.57;102201.09;5031299;28;20208;-68
2021/12/17 05:37:41;;;;;;;14.00;11.67;;;;;;;7.82;92.74;102209.69;5031615;28;20177;-70
2021/12/17 05:40:07;;;;;;;15.03;12.47;;;;;;;7.75;93.30;102203.78;5021201;28;21408;-68
2021/12/17 05:42:33;;;;;;;14.00;12.50;;;;;;;7.70;93.31;102220.91;5030354;28;20178;-68
2021/12/17 05:45:07;;;;;;;15.03;12.20;;;;;;;7.77;93.36;102226.00;5031026;28;20194;-67
2021/12/17 05:47:32;;;;;;;13.27;11.67;;;;;;;7.71;93.00;102220.03;5013551;28;20177;-67
2021/12/17 05:49:57;;;;;;;14.10;11.70;;;;;;;7.69;93.30;102231.16;5031679;28;20216;-67
2021/12/17 05:52:23;;;;;;;14.57;11.37;;;;;;;7.66;93.12;102228.63;5020424;28;20256;-69
2021/12/17 05:54:48;;;;;;;17.50;11.73;;;;;;;7.68;93.31;102232.88;5013451;28;20214;-67
2021/12/17 05:57:13;;;;;;;15.23;12.20;;;;;;;7.66;93.37;102238.88;5033263;28;20261;-68
2021/12/17 05:59:39;;;;;;;14.53;12.00;;;;;;;7.62;93.05;102235.50;5038004;28;20220;-68
2021/12/17 06:02:09;;;;;;;14.13;11.97;;;;;;;7.65;92.80;102240.56;5026413;28;20226;-68
2021/12/17 06:04:35;;;;;;;13.40;11.27;;;;;;;7.65;91.86;102243.13;5037592;28;20189;-68
2021/12/17 06:07:00;;;;;;;13.87;10.23;;;;;;;7.50;91.57;102246.66;5039456;28;20578;-69
2021/12/17 06:09:25;;;;;;;12.13;10.20;;;;;;;7.48;90.26;102256.09;5039151;28;20202;-69
2021/12/17 06:11:51;;;;;;;9.73;8.70;;;;;;;7.43;89.38;102256.13;5010676;28;20293;-69
2021/12/17 06:14:16;;;;;;;10.17;9.17;;;;;;;7.44;88.95;102249.28;5039852;28;20193;-69
2021/12/17 06:16:41;;;;;;;10.10;9.07;;;;;;;7.42;88.21;102256.13;5039679;28;20201;-70
2021/12/17 06:19:07;;;;;;;11.23;8.60;;;;;;;7.36;88.03;102257.00;5031548;28;20646;-70
2021/12/17 06:21:32;;;;;;;11.07;9.43;;;;;;;7.29;88.42;102259.63;5002577;28;20233;-69
2021/12/17 06:23:58;;;;;;;11.00;9.10;;;;;;;7.33;88.97;102256.19;5014900;28;20542;-69
2021/12/17 06:26:23;;;;;;;14.37;11.70;;;;;;;7.44;88.25;102256.94;5022515;28;20206;-70
2021/12/17 06:28:50;;;;;;;12.93;10.30;;;;;;;7.46;87.63;102259.53;5030589;28;20236;-70
2021/12/17 06:31:21;;;;;;;10.70;9.40;;;;;;;7.37;87.76;102256.16;5019345;28;20764;-69
2021/12/17 06:33:47;;;;;;;8.10;7.30;;;;;;;7.17;86.27;102251.16;5029872;28;20177;-69
2021/12/17 06:36:12;;;;;;;7.10;6.40;;;;;;;7.15;85.01;102254.59;5012819;28;20193;-70
2021/12/17 06:38:37;;;;;;;6.97;5.53;;;;;;;7.15;83.29;102252.88;5030963;28;20181;-69
2021/12/17 06:41:03;;;;;;;6.37;5.80;;;;;;;7.13;83.00;102244.34;5019477;28;20568;-69
2021/12/17 06:43:36;;;;;;;7.63;6.80;;;;;;;7.20;83.88;102251.13;5029761;28;20609;-69
2021/12/17 06:46:30;;;;;;;9.23;8.33;;;;;;;7.33;84.25;102245.94;5030270;28;20217;-67
2021/12/17 06:48:55;;;;;;;8.77;7.90;;;;;;;7.30;84.01;102248.53;5029664;28;20216;-68
2021/12/17 07:10:15;;;;;;;8.97;7.97;;;;;;;6.98;84.96;102264.91;5030264;28;20206;-68
2021/12/17 07:23:47;;;;;;;7.80;6.63;;;;;;;6.67;84.08;102258.19;5026805;28;20681;-68
2021/12/17 07:34:16;;;;;;;7.10;6.40;;;;;;;6.72;84.71;102261.63;5053480;28;20186;-67
2021/12/17 07:38:37;;;;;;;7.20;6.50;;;;;;;6.88;84.04;102266.66;5053321;28;20659;-68
2021/12/17 07:39:42;;;;;;;6.63;6.03;;;;;;;6.95;83.13;102261.50;5053220;28;20263;-67
2021/12/17 07:42:08;;;;;;;7.03;6.33;;;;;;;6.88;83.67;102253.88;5041790;28;20227;-68
2021/12/17 07:44:34;;;;;;;7.97;6.83;;;;;;;7.06;83.61;102258.06;5053434;28;20208;-67
2021/12/17 07:46:59;;;;;;;7.93;6.20;;;;;;;7.15;82.74;102263.13;5053839;28;20167;-69
2021/12/17 07:49:24;;;;;;;6.90;6.20;;;;;;;7.21;81.83;102263.06;5053299;28;20243;-67
2021/12/17 07:51:49;;;;;;;7.10;6.23;;;;;;;7.21;81.65;102269.91;5042025;28;20225;-68
2021/12/17 07:54:15;;;;;;;7.27;6.53;;;;;;;7.13;82.04;102269.94;5046419;28;20185;-68
2021/12/17 07:56:40;;;;;;;8.37;6.30;;;;;;;7.23;82.18;102270.75;5031125;28;20682;-69
2021/12/17 07:59:08;;;;;;;9.60;6.70;;;;;;;7.10;81.95;102275.94;5032395;28;20265;-67
2021/12/17 08:01:35;;;;;;;9.37;7.10;;;;;;;7.21;81.93;102286.13;5011889;28;20706;-68
2021/12/17 08:04:00;;;;;;;7.53;6.70;;;;;;;7.29;82.17;102285.22;5000672;28;20280;-68
2021/12/17 08:06:26;;;;;;;7.27;6.57;;;;;;;7.26;80.79;102292.06;5007329;28;20628;-68
2021/12/17 08:08:52;;;;;;;7.27;6.57;;;;;;;7.22;80.58;102285.25;5013095;28;20668;-67
2021/12/17 08:11:17;;;;;;;7.33;6.63;;;;;;;7.22;80.70;102286.97;5021302;28;20240;-69
2021/12/17 08:13:45;;;;;;;8.33;7.30;;;;;;;7.02;81.64;102289.63;5018311;28;20606;-67
2021/12/17 08:16:29;;;;;;;7.17;6.47;;;;;;;7.04;82.02;102293.03;5002492;28;20995;-69
2021/12/17 08:32:05;;;;;;;9.43;5.60;;;;;;;7.40;78.83;102304.78;4996938;28;20717;-69
2021/12/17 08:34:31;;;;;;;7.60;6.57;;;;;;;7.32;79.07;102308.22;5007410;28;20206;-69
2021/12/17 08:36:57;;;;;;;7.03;6.23;;;;;;;7.48;78.73;102320.13;5007589;28;20175;-69
2021/12/17 08:39:25;;;;;;;12.43;6.10;;;;;;;7.43;77.67;102320.13;5012061;28;20631;-69
2021/12/17 08:41:52;;;;;;;5.90;5.23;;;;;;;7.49;77.28;102324.38;4994016;28;20226;-69
2021/12/17 08:44:18;;;;;;;6.03;5.43;;;;;;;7.57;76.19;102329.44;5009620;28;20183;-68
2021/12/17 08:46:43;;;;;;;5.53;5.03;;;;;;;7.71;75.49;102335.31;5011647;28;20249;-68
2021/12/17 08:49:09;;;;;;;6.67;5.80;;;;;;;7.85;75.21;102337.81;5012069;28;20190;-70
2021/12/17 08:51:36;;;;;;;6.40;5.80;;;;;;;7.48;76.21;102330.34;4996566;28;20605;-67
2021/12/17 08:54:02;;;;;;;6.53;5.93;;;;;;;7.24;77.95;102342.44;5011173;28;20193;-67
2021/12/17 08:56:29;;;;;;;6.80;6.10;;;;;;;7.24;78.82;102341.56;5011381;28;20210;-68
2021/12/17 08:58:54;;;;;;;7.07;5.87;;;;;;;7.06;78.60;102348.47;5011427;28;20174;-70
2021/12/17 09:01:20;;;;;;;6.83;6.13;;;;;;;7.11;78.54;102359.53;5011184;28;20259;-70
2021/12/17 09:03:47;;;;;;;13.47;7.27;;;;;;;7.07;79.39;102357.84;5013584;28;20266;-69
2021/12/17 09:06:16;;;;;;;9.10;7.13;;;;;;;7.05;79.79;102357.00;5010883;28;20726;-69
2021/12/17 09:08:42;;;;;;;7.70;6.87;;;;;;;7.28;80.00;102353.47;5009542;28;20202;-59
2021/12/17 09:11:08;;;;;;;11.03;7.17;;;;;;;7.73;79.10;102360.94;5001691;28;20244;-58
2021/12/17 09:13:33;;;;;;;9.23;7.37;;;;;;;7.57;76.88;102358.47;5011430;28;20678;-69
2021/12/17 09:16:05;;;;;;;10.20;6.93;;;;;;;7.34;76.66;102357.75;5011943;28;20194;-69
2021/12/17 09:18:31;;;;;;;9.87;6.80;;;;;;;7.36;77.53;102356.03;5012206;28;20170;-68
2021/12/17 09:20:56;;;;;;;7.60;6.90;;;;;;;7.29;78.03;102357.75;5007743;28;20288;-68
2021/12/17 09:23:22;;;;;;;8.60;7.80;;;;;;;7.41;78.34;102346.63;5013693;28;20183;-68
2021/12/17 09:25:47;;;;;;;8.43;7.47;;;;;;;7.49;77.58;102351.69;5026243;28;20206;-68
2021/12/17 09:28:13;;;;;;;9.23;8.17;;;;;;;7.47;77.88;102358.50;5008157;28;20178;-67
2021/12/17 09:30:39;;;;;;;9.07;8.27;;;;;;;7.68;77.19;102368.66;5005840;28;20216;-70
2021/12/17 09:33:05;;;;;;;7.00;6.30;;;;;;;7.45;75.94;102357.69;5021865;28;20185;-70
2021/12/17 09:35:30;;;;;;;8.47;7.23;;;;;;;7.40;76.82;102367.94;5009764;28;20198;-69
2021/12/17 09:37:56;;;;;;;7.53;6.80;;;;;;;7.46;76.63;102361.97;5010227;28;20224;-70
2021/12/17 09:40:21;;;;;;;8.97;6.60;;;;;;;7.37;76.15;102361.13;5002126;28;20575;-70
2021/12/17 09:42:47;;;;;;;6.50;5.87;;;;;;;7.47;75.94;102364.50;5010238;28;20651;-69
2021/12/17 09:45:14;;;;;;;7.60;6.17;;;;;;;7.42;75.75;102371.38;5010086;28;20654;-70
2021/12/17 09:47:41;;;;;;;8.13;6.80;;;;;;;7.42;75.45;102367.06;5007628;28;20179;-69
2021/12/17 09:50:08;;;;;;;7.33;6.23;;;;;;;7.52;75.41;102360.22;5009504;28;20220;-70
2021/12/17 09:52:34;;;;;;;7.13;6.13;;;;;;;7.41;75.15;102354.28;5035308;28;20252;-69
2021/12/17 09:55:00;;;;;;;7.97;6.83;;;;;;;7.56;75.23;102358.47;5010409;28;20198;-69
2021/12/17 09:57:26;;;;;;;7.03;6.33;;;;;;;7.66;74.39;102357.56;5011164;28;20181;-69
2021/12/17 09:59:52;;;;;;;6.57;5.80;;;;;;;7.57;73.09;102362.75;5010901;28;20174;-70
2021/12/17 10:02:18;;;;;;;6.77;6.07;;;;;;;7.40;73.29;102366.22;5000894;28;20301;-70
2021/12/17 10:04:45;;;;;;;6.13;5.53;;;;;;;7.37;73.63;102355.19;5006833;28;20613;-68
2021/12/17 10:07:30;;;;;;;8.37;6.17;;;;;;;7.54;75.03;102357.63;5009147;28;20254;-69
2021/12/17 10:10:02;;;;;;;6.53;5.93;;;;;;;7.87;73.24;102346.31;5011478;28;20636;-70
2021/12/17 10:12:34;;;;;;;6.43;5.03;;;;;;;8.10;72.39;102352.13;4999819;28;20301;-69
2021/12/17 10:15:07;;;;;;;6.33;5.73;;;;;;;8.04;70.95;102359.00;5009775;28;20201;-68
2021/12/17 10:17:35;;;;;;;6.70;5.20;;;;;;;7.85;71.53;102354.88;5007749;28;20171;-69
2021/12/17 10:20:01;;;;;;;5.50;5.00;;;;;;;7.87;71.77;102343.75;5027127;28;20230;-68
2021/12/17 10:22:29;;;;;;;6.03;5.43;;;;;;;7.87;69.98;102342.91;4999437;28;20222;-68
2021/12/17 10:25:03;;;;;;;6.53;5.33;;;;;;;7.64;71.18;102345.63;5009560;28;20198;-68
2021/12/17 10:27:33;;;;;;;6.33;5.70;;;;;;;7.81;72.19;102341.22;5009047;28;20182;-69
2021/12/17 10:30:07;;;;;;;6.70;6.10;;;;;;;7.73;71.45;102346.41;5005887;28;20215;-68
2021/12/17 10:32:32;;;;;;;6.87;6.17;;;;;;;7.56;71.99;102340.56;4998956;28;20210;-69
2021/12/17 10:35:04;;;;;;;7.23;6.10;;;;;;;7.51;73.30;102345.69;5009638;28;20198;-68
2021/12/17 10:37:38;;;;;;;6.43;5.83;;;;;;;7.36;74.08;102343.22;5024976;28;20574;-68
2021/12/17 10:40:14;;;;;;;7.13;5.10;;;;;;;7.05;75.53;102341.63;5000106;28;20177;-67
2021/12/17 10:42:41;;;;;;;6.07;5.33;;;;;;;7.18;76.29;102332.22;5008369;28;20190;-68
2021/12/17 10:45:12;;;;;;;8.17;5.90;;;;;;;7.18;75.72;102334.78;5010367;28;20198;-69
2021/12/17 10:47:46;;;;;;;10.13;5.10;;;;;;;7.13;76.47;102328.81;5003300;28;20197;-67
2021/12/17 10:50:11;;;;;;;8.17;5.60;;;;;;;7.24;76.63;102323.66;5006298;28;20221;-66
2021/12/17 10:52:44;;;;;;;7.17;5.50;;;;;;;7.26;76.26;102324.50;5007555;28;20229;-67
2021/12/17 10:55:13;;;;;;;6.37;5.30;;;;;;;7.33;75.98;102322.75;4994949;28;20238;-67
2021/12/17 10:57:39;;;;;;;8.13;5.73;;;;;;;7.30;76.51;102328.72;5030040;28;20169;-66
2021/12/17 11:00:07;;;;;;;7.77;5.70;;;;;;;7.23;76.90;102317.69;5009562;28;20183;-67
2021/12/17 11:02:37;;;;;;;8.77;6.20;;;;;;;7.40;76.41;102311.63;5031135;28;20174;-67
2021/12/17 11:05:15;;;;;;;9.53;5.97;;;;;;;7.36;75.58;102312.50;5028674;28;20197;-68
2021/12/17 11:07:49;;;;;;;6.27;5.63;;;;;;;7.35;75.39;102313.34;5025610;28;20178;-68
2021/12/17 11:10:16;;;;;;;7.73;6.00;;;;;;;7.33;75.56;102315.94;5004711;28;20214;-68
2021/12/17 11:12:45;;;;;;;9.30;6.43;;;;;;;7.37;75.80;102316.78;5029628;28;20239;-67
2021/12/17 11:15:19;;;;;;;7.77;5.93;;;;;;;7.38;75.76;102313.31;5023080;28;20666;-66
2021/12/17 11:17:51;;;;;;;8.57;6.90;;;;;;;7.66;75.08;102325.97;5017104;28;20470;-66
2021/12/17 11:20:20;;;;;;;8.23;6.53;;;;;;;7.80;74.58;102320.75;5017208;28;20541;-68
2021/12/17 11:22:47;;;;;;;7.27;6.37;;;;;;;7.86;74.10;102323.28;5044919;28;20190;-67
2021/12/17 11:25:14;;;;;;;7.00;5.67;;;;;;;8.12;72.80;102320.50;5034290;28;20197;-67
2021/12/17 11:27:40;;;;;;;7.00;6.03;;;;;;;8.31;70.73;102308.38;5014561;28;20261;-67
2021/12/17 11:30:12;;;;;;;6.40;5.80;;;;;;;8.20;71.02;102316.16;5022539;28;20269;-67
2021/12/17 11:32:37;;;;;;;8.18;6.82;;;;;;;8.50;70.95;102306.50;5010351;28;20846;-68
2021/12/17 11:35:04;;;;;;;7.27;6.50;;;;;;;8.24;71.46;102324.66;4996782;28;20273;-67
2021/12/17 11:37:31;;;;;;;8.07;6.10;;;;;;;8.03;72.28;102318.03;5013610;28;20179;-67
2021/12/17 11:40:00;;;;;;;6.57;5.27;;;;;;;8.00;73.01;102312.91;5016113;28;20193;-67
2021/12/17 11:42:48;;;;;;;6.80;6.03;;;;;;;8.34;72.67;102305.75;5006271;28;20225;-68
2021/12/17 11:45:28;;;;;;;8.20;5.97;;;;;;;8.59;71.48;102309.84;5016624;28;20209;-67
2021/12/17 11:48:09;;;;;;;8.13;5.90;;;;;;;8.16;71.61;102309.38;5016352;28;20304;-67
2021/12/17 11:50:34;;;;;;;6.70;5.60;;;;;;;8.42;71.81;102302.28;5003136;28;20224;-67
2021/12/17 11:53:15;;;;;;;6.07;5.17;;;;;;;8.16;71.54;102299.09;5015980;28;20563;-67
2021/12/17 11:55:41;;;;;;;5.57;5.07;;;;;;;8.17;72.02;102299.94;5006376;28;20210;-67
2021/12/17 11:58:11;;;;;;;6.53;5.07;;;;;;;7.86;72.52;102300.22;5015587;28;20182;-68
2021/12/17 12:00:38;;;;;;;6.67;5.13;;;;;;;7.88;72.80;102298.50;4996474;28;20221;-67
2021/12/17 12:03:16;;;;;;;7.90;4.83;;;;;;;7.87;72.68;102305.31;5016334;28;20169;-67
2021/12/17 12:05:44;;;;;;;7.17;5.13;;;;;;;7.95;72.68;102304.41;5016053;28;20198;-66
2021/12/17 12:08:48;;;;;;;6.53;5.33;;;;;;;8.21;71.95;102305.03;5015161;28;20175;-67
2021/12/17 12:11:16;;;;;;;6.03;5.30;;;;;;;8.12;71.87;102297.41;5011584;28;20292;-67
2021/12/17 12:13:44;;;;;;;7.93;6.00;;;;;;;7.92;72.77;102295.03;5017760;28;20191;-67
2021/12/17 12:16:16;;;;;;;7.80;5.90;;;;;;;7.93;72.99;102304.44;5002469;28;20231;-66
2021/12/17 12:18:47;;;;;;;8.37;5.47;;;;;;;7.83;73.63;102303.66;5012762;28;20163;-67
2021/12/17 12:21:16;;;;;;;7.77;5.23;;;;;;;7.82;73.38;102296.81;5002775;28;20292;-66
2021/12/17 12:23:43;;;;;;;7.27;5.00;;;;;;;7.74;74.01;102288.34;5006271;28;20182;-67
2021/12/17 12:26:21;;;;;;;5.53;4.93;;;;;;;8.09;73.14;102302.59;5012092;28;20190;-67
2021/12/17 12:29:05;;;;;;;5.40;4.90;;;;;;;7.65;74.02;102291.81;5011849;28;20206;-67
2021/12/17 12:31:32;;;;;;;6.23;5.37;;;;;;;7.67;74.35;102300.34;4969061;28;20346;-66
2021/12/17 12:34:07;;;;;;;6.23;5.33;;;;;;;7.80;74.00;102287.44;5004843;28;20189;-67
2021/12/17 12:37:03;;;;;;;7.53;5.20;;;;;;;7.87;73.19;102289.09;5010526;28;20201;-68
2021/12/17 12:39:48;;;;;;;6.80;5.67;;;;;;;8.06;72.33;102284.66;4986354;28;20253;-66
2021/12/17 12:42:38;;;;;;;6.30;5.70;;;;;;;8.27;71.49;102269.94;5017825;28;20309;-67
2021/12/17 12:45:05;;;;;;;7.45;5.50;;;;;;;8.32;71.09;102276.75;5003828;28;20435;-67
2021/12/17 12:47:54;;;;;;;8.17;5.60;;;;;;;8.16;71.35;102272.59;5012575;28;20215;-68
2021/12/17 12:50:24;;;;;;;6.37;5.50;;;;;;;8.24;71.34;102271.66;5003669;28;20617;-67
2021/12/17 12:52:54;;;;;;;9.67;5.83;;;;;;;8.36;71.45;102268.13;5020377;28;20273;-67
2021/12/17 12:55:30;;;;;;;5.70;5.10;;;;;;;8.23;70.87;102271.69;5011687;28;20610;-68
2021/12/17 12:57:58;;;;;;;5.63;5.03;;;;;;;8.55;70.44;102296.19;5010098;28;20193;-68
2021/12/17 13:00:27;;;;;;;5.80;5.20;;;;;;;8.70;69.78;102300.28;5002066;28;20239;-68
2021/12/17 13:03:01;;;;;;;6.80;5.43;;;;;;;8.71;69.92;102292.56;5014212;28;20202;-68
2021/12/17 13:05:28;;;;;;;5.33;4.70;;;;;;;8.68;69.08;102292.63;5018490;28;20248;-67
2021/12/17 13:08:03;;;;;;;5.93;4.87;;;;;;;8.43;69.69;102297.13;5016860;28;20178;-67
2021/12/17 13:10:36;;;;;;;5.57;5.07;;;;;;;8.31;70.42;102294.69;5010263;28;20260;-67
2021/12/17 13:13:16;;;;;;;6.53;4.90;;;;;;;8.41;70.48;102293.75;5016025;28;20183;-68
2021/12/17 13:15:49;;;;;;;4.80;4.37;;;;;;;8.58;70.42;102278.19;5017656;28;20198;-67
2021/12/17 13:24:15;;;;;;;5.17;4.33;;;;;;;8.09;73.65;102269.25;4998562;28;20601;-67
2021/12/17 13:27:00;;;;;;;6.03;4.30;;;;;;;8.18;73.44;102258.91;5013686;28;20191;-67
2021/12/17 13:29:35;;;;;;;5.77;4.27;;;;;;;8.52;73.41;102263.72;5013380;28;20505;-67
2021/12/17 13:32:06;;;;;;;5.60;3.80;;;;;;;8.51;72.39;102262.03;5004551;28;20221;-67
2021/12/17 13:34:35;;;;;;;6.80;4.00;;;;;;;8.68;72.06;102251.56;5012086;28;20178;-66
2021/12/17 13:37:06;;;;;;;4.43;4.00;;;;;;;8.75;71.70;102254.91;5012049;28;20258;-67
2021/12/17 13:39:44;;;;;;;5.17;3.47;;;;;;;8.64;71.99;102254.19;5012194;28;20171;-67
2021/12/17 13:42:21;;;;;;;3.60;3.30;;;;;;;8.33;72.82;102257.06;5001109;28;20276;-68
2021/12/17 13:44:49;;;;;;;3.73;3.27;;;;;;;8.49;73.82;102268.88;5026725;28;20214;-68
2021/12/17 13:47:25;;;;;;;3.80;3.50;;;;;;;8.23;73.78;102266.56;5011562;28;20189;-68
2021/12/17 13:49:52;;;;;;;3.63;2.80;;;;;;;8.12;74.60;102276.06;5011648;28;20244;-68
2021/12/17 13:52:23;;;;;;;3.40;3.10;;;;;;;7.81;76.47;102284.03;5001883;28;20229;-67
2021/12/17 13:54:50;;;;;;;3.53;2.70;;;;;;;7.68;78.46;102290.97;5011200;28;20568;-66
2021/12/17 13:57:18;;;;;;;3.00;2.70;;;;;;;7.63;79.57;102280.75;5010939;28;20224;-68
2021/12/17 13:59:44;;;;;;;3.23;2.80;;;;;;;7.45;79.81;102273.19;5011429;28;20641;-68
2021/12/17 14:02:22;;;;;;;4.73;3.23;;;;;;;7.67;79.38;102277.28;4998924;28;20678;-68
2021/12/17 14:05:05;;;;;;;3.87;3.13;;;;;;;7.72;78.36;102282.38;5010300;28;20685;-67
2021/12/17 14:07:33;;;;;;;4.97;3.03;;;;;;;7.73;78.81;102282.38;5009036;28;20544;-67
2021/12/17 14:10:05;;;;;;;2.80;2.50;;;;;;;7.76;78.30;102286.63;5010398;28;20214;-67
2021/12/17 14:12:33;;;;;;;3.40;3.10;;;;;;;7.78;77.92;102291.72;5011167;28;20214;-68
2021/12/17 14:15:10;;;;;;;3.50;2.70;;;;;;;7.57;78.79;102291.03;5030604;28;20197;-68
2021/12/17 14:17:42;;;;;;;5.10;3.50;;;;;;;7.68;78.41;102284.13;5023202;28;20190;-68